Sunday, May 27, 2018, 5:48 PM GMT
Back to Local

CYYZ, Toronto Pearson Int'L. Ont.

Location: , , Canada Lat: 43.667
Local Time: 5:48 PM GMT (17:48 GMT) Lon: -79.633
Time Zone: GMT Elev: 567 ft

Show me the last for .
Show Decoded

2018-05-27 17:00 METAR CYYZ 271700Z 14006KT 110V170 15SM FEW035 25/18 A2991 RMK CU1 CU TR SLP127
                 DENSITY ALT 1900FT =
2018-05-27 16:00 METAR CYYZ 271600Z 14006KT 120V180 15SM FEW025 FEW220 23/16 A2992 RMK CF1CI1 CF
                 TR CI TR SLP132 DENSITY ALT 1700FT =
2018-05-27 15:00 METAR CYYZ 271500Z 21004KT 120V230 15SM SKC 24/18 A2992 RMK SLP133 DENSITY ALT
                 1700FT =
2018-05-27 14:00 METAR CYYZ 271400Z VRB03KT 15SM FEW015 22/17 A2993 RMK SC1 SC TR SLP135 DENSITY
                 ALT 1500FT =
2018-05-27 13:00 METAR CYYZ 271300Z 00000KT 15SM FEW120 20/16 A2993 RMK AC1 AC TR SLP135 DENSITY
                 ALT 1300FT =
2018-05-27 12:00 METAR CYYZ 271200Z 09003KT 060V120 15SM FEW120 19/15 A2992 RMK AC1 SLP132
                 DENSITY ALT 1200FT =
2018-05-27 11:00 METAR CYYZ 271100Z 16003KT 130V240 15SM FEW110 18/15 A2990 RMK AC1 SLP127
                 DENSITY ALT 1100FT =
2018-05-27 10:00 METAR CYYZ 271000Z 10004KT 15SM FEW100 17/14 A2989 RMK AC1 SLP122 DENSITY ALT
                 1000FT =
2018-05-27 09:00 METAR CYYZ 270900Z 04003KT 15SM FEW100 17/14 A2988 RMK AC1 SLP117 DENSITY ALT
                 1000FT =
2018-05-27 08:00 METAR CYYZ 270800Z 09004KT 15SM SKC 17/14 A2987 RMK SLP116 DENSITY ALT 1100FT =
2018-05-27 07:00 METAR CYYZ 270700Z 06004KT 15SM SKC 18/14 A2987 RMK SLP114 DENSITY ALT 1100FT =
2018-05-27 06:00 METAR CYYZ 270600Z 06004KT 15SM FEW110 18/14 A2987 RMK AC1 SLP114 DENSITY ALT
                 1200FT =
2018-05-27 05:00 METAR CYYZ 270500Z 06004KT 15SM FEW110 17/14 A2987 RMK AC1 SLP115 DENSITY ALT
                 1100FT =
2018-05-27 04:00 METAR CYYZ 270400Z 08003KT 15SM FEW110 SCT160 17/14 A2988 RMK AC1AC3 SLP118
                 DENSITY ALT 1100FT =
2018-05-27 03:00 METAR CYYZ 270300Z 14008KT 15SM SCT120 BKN160 19/15 A2988 RMK AC4AC3 SLP118
                 DENSITY ALT 1200FT =
2018-05-27 02:00 METAR CYYZ 270200Z 12003KT 15SM BKN140 20/15 A2986 RMK AC7 PRESRR SLP112 DENSITY
                 ALT 1400FT =
2018-05-27 01:00 METAR CYYZ 270100Z 14008KT 15SM BKN120 22/15 A2983 RMK AC7 SLP099 DENSITY ALT
                 1700FT =
2018-05-27 00:00 METAR CYYZ 270000Z 08004KT 060V130 15SM BKN120 23/16 A2982 RMK AC7 SLP096
                 DENSITY ALT 1800FT =
2018-05-26 23:00 METAR CYYZ 262300Z 05007KT 15SM SCT075 BKN120 BKN270 23/17 A2981 RMK ACC4ACC1CC1
                 CIG LWR N-E SLP093 DENSITY ALT 1800FT =
2018-05-26 22:00 METAR CYYZ 262200Z 01021KT 15SM SCT080 BKN110 BKN270 24/16 A2979 RMK ACC3AC3CI1
                 WSHFT 2143 SLP089 DENSITY ALT 1900FT =
2018-05-26 21:00 METAR CYYZ 262100Z 17010KT 15SM FEW080 BKN280 27/16 A2977 RMK AC2CI4 SLP080
                 DENSITY ALT 2300FT =
2018-05-26 20:00 METAR CYYZ 262000Z 17010G15KT 15SM FEW060 FEW160 BKN280 27/15 A2977 RMK
                 CU1AC2CI5 CU TR SLP080 DENSITY ALT 2300FT =
2018-05-26 19:00 METAR CYYZ 261900Z 15009KT 130V190 15SM FEW080 FEW210 BKN280 27/15 A2978 RMK
                 AC1CC2CI5 AC TR SLP085 DENSITY ALT 2200FT =
2018-05-26 18:00 METAR CYYZ 261800Z 17007KT 15SM FEW065 FEW150 OVC280 26/15 A2980 RMK CF1AC1CI6
                 SLP089 DENSITY ALT 2100FT =

Support USWX by starting your Amazon purchase here.